sensor_id;sensor_type;location;lat;lon;timestamp;temperature;humidity
52107;DHT22;38105;52.968;5.974;2024-03-23T00:52:15;5.80;99.90
52107;DHT22;38105;52.968;5.974;2024-03-23T00:54:41;5.80;99.90
52107;DHT22;38105;52.968;5.974;2024-03-23T00:57:06;5.70;99.90
52107;DHT22;38105;52.968;5.974;2024-03-23T00:59:32;5.60;99.90
52107;DHT22;38105;52.968;5.974;2024-03-23T01:01:57;5.80;99.90
52107;DHT22;38105;52.968;5.974;2024-03-23T01:04:23;5.70;99.90
52107;DHT22;38105;52.968;5.974;2024-03-23T01:06:48;5.60;99.90
52107;DHT22;38105;52.968;5.974;2024-03-23T01:09:14;5.80;99.90
52107;DHT22;38105;52.968;5.974;2024-03-23T01:11:39;5.70;99.90
52107;DHT22;38105;52.968;5.974;2024-03-23T01:14:05;5.70;99.90
52107;DHT22;38105;52.968;5.974;2024-03-23T01:16:31;5.50;99.90
52107;DHT22;38105;52.968;5.974;2024-03-23T01:18:57;5.50;99.90
52107;DHT22;38105;52.968;5.974;2024-03-23T01:21:22;5.70;99.90
52107;DHT22;38105;52.968;5.974;2024-03-23T01:23:48;5.50;99.90
52107;DHT22;38105;52.968;5.974;2024-03-23T01:26:14;5.60;99.90
52107;DHT22;38105;52.968;5.974;2024-03-23T01:28:40;5.70;99.90
52107;DHT22;38105;52.968;5.974;2024-03-23T01:31:05;5.70;99.90
52107;DHT22;38105;52.968;5.974;2024-03-23T01:33:31;5.60;99.90
52107;DHT22;38105;52.968;5.974;2024-03-23T01:35:56;5.60;99.90
52107;DHT22;38105;52.968;5.974;2024-03-23T01:38:22;5.80;99.90
52107;DHT22;38105;52.968;5.974;2024-03-23T01:40:48;5.70;99.90
52107;DHT22;38105;52.968;5.974;2024-03-23T01:43:13;5.80;99.90
52107;DHT22;38105;52.968;5.974;2024-03-23T01:45:39;5.80;99.90
52107;DHT22;38105;52.968;5.974;2024-03-23T01:48:04;5.70;99.90
52107;DHT22;38105;52.968;5.974;2024-03-23T01:50:30;5.70;99.90
52107;DHT22;38105;52.968;5.974;2024-03-23T01:52:59;5.70;99.90
52107;DHT22;38105;52.968;5.974;2024-03-23T01:55:26;5.60;99.90
52107;DHT22;38105;52.968;5.974;2024-03-23T01:57:52;5.60;99.90
52107;DHT22;38105;52.968;5.974;2024-03-23T02:00:18;5.70;99.90
52107;DHT22;38105;52.968;5.974;2024-03-23T02:02:46;5.70;99.90
52107;DHT22;38105;52.968;5.974;2024-03-23T02:05:12;5.50;99.90
52107;DHT22;38105;52.968;5.974;2024-03-23T02:07:42;5.70;99.90
52107;DHT22;38105;52.968;5.974;2024-03-23T02:10:09;5.60;99.90
52107;DHT22;38105;52.968;5.974;2024-03-23T02:12:35;5.50;99.90
52107;DHT22;38105;52.968;5.974;2024-03-23T02:15:01;5.60;99.90
52107;DHT22;38105;52.968;5.974;2024-03-23T02:17:26;5.40;99.90
52107;DHT22;38105;52.968;5.974;2024-03-23T02:19:52;5.60;99.90
52107;DHT22;38105;52.968;5.974;2024-03-23T02:22:17;5.50;99.90
52107;DHT22;38105;52.968;5.974;2024-03-23T02:24:43;5.30;99.90
52107;DHT22;38105;52.968;5.974;2024-03-23T02:27:08;5.40;99.90
52107;DHT22;38105;52.968;5.974;2024-03-23T02:29:34;5.50;99.90
52107;DHT22;38105;52.968;5.974;2024-03-23T02:31:59;5.30;99.90
52107;DHT22;38105;52.968;5.974;2024-03-23T02:34:25;5.30;99.90
52107;DHT22;38105;52.968;5.974;2024-03-23T02:36:51;5.50;99.90
52107;DHT22;38105;52.968;5.974;2024-03-23T02:39:16;5.60;99.90
52107;DHT22;38105;52.968;5.974;2024-03-23T02:41:42;5.40;99.90
52107;DHT22;38105;52.968;5.974;2024-03-23T02:44:07;5.60;99.90
52107;DHT22;38105;52.968;5.974;2024-03-23T02:46:33;5.60;99.90
52107;DHT22;38105;52.968;5.974;2024-03-23T02:48:58;5.50;99.90
52107;DHT22;38105;52.968;5.974;2024-03-23T02:51:24;5.50;99.90
52107;DHT22;38105;52.968;5.974;2024-03-23T02:53:49;5.60;99.90
52107;DHT22;38105;52.968;5.974;2024-03-23T02:56:15;5.50;99.90
52107;DHT22;38105;52.968;5.974;2024-03-23T02:58:45;5.50;99.90
52107;DHT22;38105;52.968;5.974;2024-03-23T03:01:10;5.40;99.90
52107;DHT22;38105;52.968;5.974;2024-03-23T03:03:36;5.30;99.90
52107;DHT22;38105;52.968;5.974;2024-03-23T03:06:01;5.30;99.90
52107;DHT22;38105;52.968;5.974;2024-03-23T03:08:27;5.30;99.90
52107;DHT22;38105;52.968;5.974;2024-03-23T03:10:52;5.10;99.90
52107;DHT22;38105;52.968;5.974;2024-03-23T03:13:18;5.10;99.90
52107;DHT22;38105;52.968;5.974;2024-03-23T03:15:44;5.20;99.90
52107;DHT22;38105;52.968;5.974;2024-03-23T03:18:09;5.10;99.90
52107;DHT22;38105;52.968;5.974;2024-03-23T03:20:38;5.00;99.90
52107;DHT22;38105;52.968;5.974;2024-03-23T03:23:05;5.00;99.90
52107;DHT22;38105;52.968;5.974;2024-03-23T03:25:30;5.00;99.90
52107;DHT22;38105;52.968;5.974;2024-03-23T03:27:56;5.10;99.90
52107;DHT22;38105;52.968;5.974;2024-03-23T03:30:21;5.00;99.90
52107;DHT22;38105;52.968;5.974;2024-03-23T03:32:47;4.90;99.90
52107;DHT22;38105;52.968;5.974;2024-03-23T03:35:12;5.00;99.90
52107;DHT22;38105;52.968;5.974;2024-03-23T03:37:38;5.20;99.90
52107;DHT22;38105;52.968;5.974;2024-03-23T03:40:03;5.10;99.90
52107;DHT22;38105;52.968;5.974;2024-03-23T03:42:29;5.10;99.90
52107;DHT22;38105;52.968;5.974;2024-03-23T03:44:55;4.90;99.90
52107;DHT22;38105;52.968;5.974;2024-03-23T03:47:20;4.90;99.90
52107;DHT22;38105;52.968;5.974;2024-03-23T03:49:47;5.10;99.90
52107;DHT22;38105;52.968;5.974;2024-03-23T03:52:12;5.00;99.90
52107;DHT22;38105;52.968;5.974;2024-03-23T03:54:38;4.80;99.90
52107;DHT22;38105;52.968;5.974;2024-03-23T03:57:03;5.00;99.90
52107;DHT22;38105;52.968;5.974;2024-03-23T03:59:29;4.90;99.90
52107;DHT22;38105;52.968;5.974;2024-03-23T04:01:54;5.00;99.90
52107;DHT22;38105;52.968;5.974;2024-03-23T04:04:20;4.80;99.90
52107;DHT22;38105;52.968;5.974;2024-03-23T04:06:47;4.70;99.90
52107;DHT22;38105;52.968;5.974;2024-03-23T04:09:13;4.90;99.90
52107;DHT22;38105;52.968;5.974;2024-03-23T04:11:38;4.90;99.90
52107;DHT22;38105;52.968;5.974;2024-03-23T04:14:04;4.90;99.90
52107;DHT22;38105;52.968;5.974;2024-03-23T04:16:33;4.80;99.90
52107;DHT22;38105;52.968;5.974;2024-03-23T04:18:59;4.70;99.90
52107;DHT22;38105;52.968;5.974;2024-03-23T04:21:25;4.60;99.90
52107;DHT22;38105;52.968;5.974;2024-03-23T04:23:50;4.70;99.90
52107;DHT22;38105;52.968;5.974;2024-03-23T04:26:17;4.70;99.90
52107;DHT22;38105;52.968;5.974;2024-03-23T04:28:42;4.70;99.90
52107;DHT22;38105;52.968;5.974;2024-03-23T04:31:08;4.60;99.90
52107;DHT22;38105;52.968;5.974;2024-03-23T04:33:34;4.50;99.90
52107;DHT22;38105;52.968;5.974;2024-03-23T04:35:59;4.70;99.90
52107;DHT22;38105;52.968;5.974;2024-03-23T04:38:25;4.70;99.90
52107;DHT22;38105;52.968;5.974;2024-03-23T04:41:08;4.60;99.90
52107;DHT22;38105;52.968;5.974;2024-03-23T04:43:34;4.50;99.90
52107;DHT22;38105;52.968;5.974;2024-03-23T04:45:59;4.50;99.90
52107;DHT22;38105;52.968;5.974;2024-03-23T04:48:25;4.50;99.90
52107;DHT22;38105;52.968;5.974;2024-03-23T04:50:54;4.60;99.90
52107;DHT22;38105;52.968;5.974;2024-03-23T04:53:20;4.50;99.90
52107;DHT22;38105;52.968;5.974;2024-03-23T04:55:45;4.60;99.90
52107;DHT22;38105;52.968;5.974;2024-03-23T04:58:11;4.40;99.90
52107;DHT22;38105;52.968;5.974;2024-03-23T05:00:36;4.60;99.90
52107;DHT22;38105;52.968;5.974;2024-03-23T05:03:02;4.50;99.90
52107;DHT22;38105;52.968;5.974;2024-03-23T05:05:29;4.40;99.90
52107;DHT22;38105;52.968;5.974;2024-03-23T05:07:55;4.50;99.90
52107;DHT22;38105;52.968;5.974;2024-03-23T05:10:20;4.40;99.90
52107;DHT22;38105;52.968;5.974;2024-03-23T05:12:46;4.30;99.90
52107;DHT22;38105;52.968;5.974;2024-03-23T05:15:11;4.30;99.90
52107;DHT22;38105;52.968;5.974;2024-03-23T05:17:37;4.30;99.90
52107;DHT22;38105;52.968;5.974;2024-03-23T05:20:03;4.50;99.90
52107;DHT22;38105;52.968;5.974;2024-03-23T05:22:29;4.30;99.90
52107;DHT22;38105;52.968;5.974;2024-03-23T05:24:56;4.40;99.90
52107;DHT22;38105;52.968;5.974;2024-03-23T05:27:21;4.70;99.90
52107;DHT22;38105;52.968;5.974;2024-03-23T05:29:47;4.80;99.90
52107;DHT22;38105;52.968;5.974;2024-03-23T05:32:12;4.60;99.90
52107;DHT22;38105;52.968;5.974;2024-03-23T05:34:38;4.80;99.90
52107;DHT22;38105;52.968;5.974;2024-03-23T05:37:03;4.80;99.90
52107;DHT22;38105;52.968;5.974;2024-03-23T05:39:29;4.70;99.90
52107;DHT22;38105;52.968;5.974;2024-03-23T05:41:55;5.00;99.90
52107;DHT22;38105;52.968;5.974;2024-03-23T05:44:20;4.90;99.90
52107;DHT22;38105;52.968;5.974;2024-03-23T05:46:46;5.00;99.90
52107;DHT22;38105;52.968;5.974;2024-03-23T05:49:14;4.90;99.90
52107;DHT22;38105;52.968;5.974;2024-03-23T05:51:39;5.20;99.90
52107;DHT22;38105;52.968;5.974;2024-03-23T05:54:05;5.20;99.90
52107;DHT22;38105;52.968;5.974;2024-03-23T05:56:31;5.20;99.90
52107;DHT22;38105;52.968;5.974;2024-03-23T05:58:57;5.30;99.90
52107;DHT22;38105;52.968;5.974;2024-03-23T06:01:22;5.20;99.90
52107;DHT22;38105;52.968;5.974;2024-03-23T06:03:48;5.20;99.90
52107;DHT22;38105;52.968;5.974;2024-03-23T06:06:13;5.20;99.90
52107;DHT22;38105;52.968;5.974;2024-03-23T06:08:39;5.20;99.90
52107;DHT22;38105;52.968;5.974;2024-03-23T06:11:05;5.30;99.90
52107;DHT22;38105;52.968;5.974;2024-03-23T06:13:32;5.10;99.90
52107;DHT22;38105;52.968;5.974;2024-03-23T06:15:57;5.40;99.90
52107;DHT22;38105;52.968;5.974;2024-03-23T06:18:24;5.30;99.90
52107;DHT22;38105;52.968;5.974;2024-03-23T06:20:49;5.30;99.90
52107;DHT22;38105;52.968;5.974;2024-03-23T06:23:15;5.30;99.90
52107;DHT22;38105;52.968;5.974;2024-03-23T06:25:42;5.40;99.90
52107;DHT22;38105;52.968;5.974;2024-03-23T06:28:08;5.40;99.90
52107;DHT22;38105;52.968;5.974;2024-03-23T06:30:33;5.60;99.90
52107;DHT22;38105;52.968;5.974;2024-03-23T06:32:59;6.00;99.90
52107;DHT22;38105;52.968;5.974;2024-03-23T06:35:24;6.80;99.90
52107;DHT22;38105;52.968;5.974;2024-03-23T06:37:50;8.10;99.90
52107;DHT22;38105;52.968;5.974;2024-03-23T06:40:15;9.60;99.90
52107;DHT22;38105;52.968;5.974;2024-03-23T06:42:41;10.00;99.90
52107;DHT22;38105;52.968;5.974;2024-03-23T06:45:07;9.70;99.90
52107;DHT22;38105;52.968;5.974;2024-03-23T06:47:33;9.50;99.90
52107;DHT22;38105;52.968;5.974;2024-03-23T06:49:59;9.80;99.90
52107;DHT22;38105;52.968;5.974;2024-03-23T06:52:27;10.10;99.90
52107;DHT22;38105;52.968;5.974;2024-03-23T06:54:53;10.00;99.90
52107;DHT22;38105;52.968;5.974;2024-03-23T06:57:18;9.80;99.90
52107;DHT22;38105;52.968;5.974;2024-03-23T06:59:44;9.30;99.90
52107;DHT22;38105;52.968;5.974;2024-03-23T07:02:09;8.90;99.90
52107;DHT22;38105;52.968;5.974;2024-03-23T07:04:35;8.60;99.90
52107;DHT22;38105;52.968;5.974;2024-03-23T07:07:01;8.10;99.90
52107;DHT22;38105;52.968;5.974;2024-03-23T07:09:27;7.80;99.90
52107;DHT22;38105;52.968;5.974;2024-03-23T07:11:54;7.40;99.90
52107;DHT22;38105;52.968;5.974;2024-03-23T07:14:20;7.10;99.90
52107;DHT22;38105;52.968;5.974;2024-03-23T07:16:45;6.90;99.90
52107;DHT22;38105;52.968;5.974;2024-03-23T07:19:11;6.60;99.90
52107;DHT22;38105;52.968;5.974;2024-03-23T07:21:36;6.70;99.90
52107;DHT22;38105;52.968;5.974;2024-03-23T07:24:02;6.50;99.90
52107;DHT22;38105;52.968;5.974;2024-03-23T07:26:27;6.50;99.90
52107;DHT22;38105;52.968;5.974;2024-03-23T07:28:53;6.50;99.90
52107;DHT22;38105;52.968;5.974;2024-03-23T07:31:19;6.60;99.90
52107;DHT22;38105;52.968;5.974;2024-03-23T07:33:46;6.50;99.90
52107;DHT22;38105;52.968;5.974;2024-03-23T07:36:12;6.50;99.90
52107;DHT22;38105;52.968;5.974;2024-03-23T07:38:40;6.60;99.90
52107;DHT22;38105;52.968;5.974;2024-03-23T07:41:06;6.60;99.90
52107;DHT22;38105;52.968;5.974;2024-03-23T07:43:32;6.50;99.90
52107;DHT22;38105;52.968;5.974;2024-03-23T07:45:57;6.40;99.90
52107;DHT22;38105;52.968;5.974;2024-03-23T07:48:23;6.50;99.90
52107;DHT22;38105;52.968;5.974;2024-03-23T07:51:05;6.40;99.90
52107;DHT22;38105;52.968;5.974;2024-03-23T07:53:31;6.40;99.90
52107;DHT22;38105;52.968;5.974;2024-03-23T07:55:59;6.40;99.90
52107;DHT22;38105;52.968;5.974;2024-03-23T07:58:25;6.40;99.90
52107;DHT22;38105;52.968;5.974;2024-03-23T08:00:51;6.60;99.90
52107;DHT22;38105;52.968;5.974;2024-03-23T08:03:17;6.70;99.90
52107;DHT22;38105;52.968;5.974;2024-03-23T08:05:43;7.20;99.90
52107;DHT22;38105;52.968;5.974;2024-03-23T08:08:08;8.40;99.90
52107;DHT22;38105;52.968;5.974;2024-03-23T08:10:34;10.40;99.90
52107;DHT22;38105;52.968;5.974;2024-03-23T08:12:59;12.40;99.90
52107;DHT22;38105;52.968;5.974;2024-03-23T08:15:25;13.90;99.90
52107;DHT22;38105;52.968;5.974;2024-03-23T08:17:51;14.70;99.90
52107;DHT22;38105;52.968;5.974;2024-03-23T08:20:16;14.70;99.90
52107;DHT22;38105;52.968;5.974;2024-03-23T08:22:42;15.40;99.90
52107;DHT22;38105;52.968;5.974;2024-03-23T08:25:07;16.20;99.90
52107;DHT22;38105;52.968;5.974;2024-03-23T08:27:33;17.00;99.90
52107;DHT22;38105;52.968;5.974;2024-03-23T08:29:58;17.20;99.90
52107;DHT22;38105;52.968;5.974;2024-03-23T08:32:24;16.70;99.90
52107;DHT22;38105;52.968;5.974;2024-03-23T08:34:49;16.90;99.90
52107;DHT22;38105;52.968;5.974;2024-03-23T08:37:15;17.70;99.90
52107;DHT22;38105;52.968;5.974;2024-03-23T08:39:42;17.80;99.90
52107;DHT22;38105;52.968;5.974;2024-03-23T08:42:08;18.10;99.90
52107;DHT22;38105;52.968;5.974;2024-03-23T08:44:33;17.20;99.90
52107;DHT22;38105;52.968;5.974;2024-03-23T08:46:59;15.30;99.90
52107;DHT22;38105;52.968;5.974;2024-03-23T08:49:24;13.60;99.90
52107;DHT22;38105;52.968;5.974;2024-03-23T08:51:50;13.90;99.90
52107;DHT22;38105;52.968;5.974;2024-03-23T08:54:16;14.80;99.90
52107;DHT22;38105;52.968;5.974;2024-03-23T08:56:41;15.30;99.90
52107;DHT22;38105;52.968;5.974;2024-03-23T08:59:07;16.10;99.90
52107;DHT22;38105;52.968;5.974;2024-03-23T09:01:32;16.10;99.90
52107;DHT22;38105;52.968;5.974;2024-03-23T09:03:57;16.40;99.90
52107;DHT22;38105;52.968;5.974;2024-03-23T09:06:23;16.60;99.90
52107;DHT22;38105;52.968;5.974;2024-03-23T09:08:49;16.50;99.90
52107;DHT22;38105;52.968;5.974;2024-03-23T09:11:14;16.10;99.90
52107;DHT22;38105;52.968;5.974;2024-03-23T09:13:40;15.70;99.90
52107;DHT22;38105;52.968;5.974;2024-03-23T09:16:07;14.50;99.90
52107;DHT22;38105;52.968;5.974;2024-03-23T09:18:35;13.20;99.90
52107;DHT22;38105;52.968;5.974;2024-03-23T09:21:01;11.90;99.90
52107;DHT22;38105;52.968;5.974;2024-03-23T09:23:26;12.40;99.90
52107;DHT22;38105;52.968;5.974;2024-03-23T09:25:52;13.90;99.90
52107;DHT22;38105;52.968;5.974;2024-03-23T09:28:17;15.50;99.90
52107;DHT22;38105;52.968;5.974;2024-03-23T09:30:43;15.60;99.90
52107;DHT22;38105;52.968;5.974;2024-03-23T09:33:12;16.40;99.90
52107;DHT22;38105;52.968;5.974;2024-03-23T09:35:38;17.40;99.90
52107;DHT22;38105;52.968;5.974;2024-03-23T09:38:04;17.60;99.90
52107;DHT22;38105;52.968;5.974;2024-03-23T09:40:29;16.70;99.90
52107;DHT22;38105;52.968;5.974;2024-03-23T09:42:55;14.40;99.90
52107;DHT22;38105;52.968;5.974;2024-03-23T09:45:21;12.20;99.90
52107;DHT22;38105;52.968;5.974;2024-03-23T09:47:46;11.30;99.90
52107;DHT22;38105;52.968;5.974;2024-03-23T09:50:12;11.80;99.90
52107;DHT22;38105;52.968;5.974;2024-03-23T09:52:38;11.80;99.90
52107;DHT22;38105;52.968;5.974;2024-03-23T09:55:04;11.70;99.90
52107;DHT22;38105;52.968;5.974;2024-03-23T09:57:29;11.00;99.90
52107;DHT22;38105;52.968;5.974;2024-03-23T09:59:55;10.60;99.90
52107;DHT22;38105;52.968;5.974;2024-03-23T10:02:22;10.20;99.90
52107;DHT22;38105;52.968;5.974;2024-03-23T10:04:48;9.60;99.90
52107;DHT22;38105;52.968;5.974;2024-03-23T10:07:15;9.10;99.90
52107;DHT22;38105;52.968;5.974;2024-03-23T10:09:42;9.00;99.90
52107;DHT22;38105;52.968;5.974;2024-03-23T10:12:18;8.80;99.90
52107;DHT22;38105;52.968;5.974;2024-03-23T10:14:44;8.80;99.90
52107;DHT22;38105;52.968;5.974;2024-03-23T10:17:13;8.30;99.90
52107;DHT22;38105;52.968;5.974;2024-03-23T10:19:45;7.90;99.90
52107;DHT22;38105;52.968;5.974;2024-03-23T10:22:14;7.50;99.90
52107;DHT22;38105;52.968;5.974;2024-03-23T10:24:41;7.30;99.90
52107;DHT22;38105;52.968;5.974;2024-03-23T10:27:07;7.30;99.90
52107;DHT22;38105;52.968;5.974;2024-03-23T10:29:32;7.50;99.90
52107;DHT22;38105;52.968;5.974;2024-03-23T10:32:11;7.80;99.90
52107;DHT22;38105;52.968;5.974;2024-03-23T10:34:37;8.20;99.90
52107;DHT22;38105;52.968;5.974;2024-03-23T10:37:03;8.90;99.90
52107;DHT22;38105;52.968;5.974;2024-03-23T10:39:47;9.60;99.90
52107;DHT22;38105;52.968;5.974;2024-03-23T10:42:12;9.80;99.90
52107;DHT22;38105;52.968;5.974;2024-03-23T10:44:38;10.20;99.90
52107;DHT22;38105;52.968;5.974;2024-03-23T10:47:04;10.50;99.90
52107;DHT22;38105;52.968;5.974;2024-03-23T10:49:30;10.60;99.90
52107;DHT22;38105;52.968;5.974;2024-03-23T10:52:03;10.50;99.90
52107;DHT22;38105;52.968;5.974;2024-03-23T10:54:32;10.70;99.90
52107;DHT22;38105;52.968;5.974;2024-03-23T10:57:05;10.50;99.90
52107;DHT22;38105;52.968;5.974;2024-03-23T10:59:33;10.00;99.90
52107;DHT22;38105;52.968;5.974;2024-03-23T11:01:59;9.60;99.90
52107;DHT22;38105;52.968;5.974;2024-03-23T11:04:37;9.70;99.90
52107;DHT22;38105;52.968;5.974;2024-03-23T11:09:45;10.60;99.90
52107;DHT22;38105;52.968;5.974;2024-03-23T11:14:52;11.00;99.90
52107;DHT22;38105;52.968;5.974;2024-03-23T11:17:22;11.30;99.90
52107;DHT22;38105;52.968;5.974;2024-03-23T11:19:54;11.20;99.90
52107;DHT22;38105;52.968;5.974;2024-03-23T11:27:44;9.00;99.90
52107;DHT22;38105;52.968;5.974;2024-03-23T11:30:17;8.60;99.90
52107;DHT22;38105;52.968;5.974;2024-03-23T11:32:44;8.70;99.90
52107;DHT22;38105;52.968;5.974;2024-03-23T11:35:09;8.50;99.90
52107;DHT22;38105;52.968;5.974;2024-03-23T11:37:36;8.20;99.90
52107;DHT22;38105;52.968;5.974;2024-03-23T11:40:16;8.00;99.90
52107;DHT22;38105;52.968;5.974;2024-03-23T11:42:41;7.80;99.90
52107;DHT22;38105;52.968;5.974;2024-03-23T11:45:07;7.70;99.90
52107;DHT22;38105;52.968;5.974;2024-03-23T11:47:33;7.60;99.90
52107;DHT22;38105;52.968;5.974;2024-03-23T11:49:59;7.50;99.90
52107;DHT22;38105;52.968;5.974;2024-03-23T11:52:24;7.30;99.90
52107;DHT22;38105;52.968;5.974;2024-03-23T11:54:50;7.30;99.90
52107;DHT22;38105;52.968;5.974;2024-03-23T11:57:15;7.80;99.90
52107;DHT22;38105;52.968;5.974;2024-03-23T11:59:41;8.10;99.90
52107;DHT22;38105;52.968;5.974;2024-03-23T12:02:07;8.50;99.90
52107;DHT22;38105;52.968;5.974;2024-03-23T12:04:33;8.90;99.90
52107;DHT22;38105;52.968;5.974;2024-03-23T12:07:17;9.10;99.90
52107;DHT22;38105;52.968;5.974;2024-03-23T12:10:04;9.40;99.90
52107;DHT22;38105;52.968;5.974;2024-03-23T12:12:31;9.80;99.90
52107;DHT22;38105;52.968;5.974;2024-03-23T12:15:04;10.20;99.90
52107;DHT22;38105;52.968;5.974;2024-03-23T12:17:31;10.50;99.90
52107;DHT22;38105;52.968;5.974;2024-03-23T12:19:57;10.70;99.90
52107;DHT22;38105;52.968;5.974;2024-03-23T12:22:23;10.60;99.90
52107;DHT22;38105;52.968;5.974;2024-03-23T12:24:49;10.40;99.90
52107;DHT22;38105;52.968;5.974;2024-03-23T12:27:14;10.20;99.90
52107;DHT22;38105;52.968;5.974;2024-03-23T12:29:40;9.80;99.90
52107;DHT22;38105;52.968;5.974;2024-03-23T12:32:07;9.60;99.90
52107;DHT22;38105;52.968;5.974;2024-03-23T12:34:32;9.40;99.90
52107;DHT22;38105;52.968;5.974;2024-03-23T12:36:58;9.00;99.90
52107;DHT22;38105;52.968;5.974;2024-03-23T12:39:23;9.00;99.90
52107;DHT22;38105;52.968;5.974;2024-03-23T12:41:49;8.90;99.90
52107;DHT22;38105;52.968;5.974;2024-03-23T12:44:15;9.20;99.90
52107;DHT22;38105;52.968;5.974;2024-03-23T12:46:41;9.20;99.90
52107;DHT22;38105;52.968;5.974;2024-03-23T12:49:07;9.60;99.90
52107;DHT22;38105;52.968;5.974;2024-03-23T12:51:33;9.90;99.90
52107;DHT22;38105;52.968;5.974;2024-03-23T12:53:59;9.80;99.90
52107;DHT22;38105;52.968;5.974;2024-03-23T12:56:24;9.70;99.90
52107;DHT22;38105;52.968;5.974;2024-03-23T12:58:50;9.50;99.90
52107;DHT22;38105;52.968;5.974;2024-03-23T13:01:20;9.40;99.90
52107;DHT22;38105;52.968;5.974;2024-03-23T13:03:49;9.30;99.90
52107;DHT22;38105;52.968;5.974;2024-03-23T13:06:15;9.10;99.90
52107;DHT22;38105;52.968;5.974;2024-03-23T13:08:41;9.00;99.90
52107;DHT22;38105;52.968;5.974;2024-03-23T13:11:08;8.70;99.90
52107;DHT22;38105;52.968;5.974;2024-03-23T13:13:34;8.50;99.90
52107;DHT22;38105;52.968;5.974;2024-03-23T13:16:00;8.70;99.90
52107;DHT22;38105;52.968;5.974;2024-03-23T13:18:25;9.00;99.90
52107;DHT22;38105;52.968;5.974;2024-03-23T13:20:51;9.20;99.90
52107;DHT22;38105;52.968;5.974;2024-03-23T13:23:19;9.30;99.90
52107;DHT22;38105;52.968;5.974;2024-03-23T13:25:51;9.40;99.90
52107;DHT22;38105;52.968;5.974;2024-03-23T13:28:18;9.50;99.90
52107;DHT22;38105;52.968;5.974;2024-03-23T13:30:53;9.60;99.90
52107;DHT22;38105;52.968;5.974;2024-03-23T13:33:19;9.70;99.90
52107;DHT22;38105;52.968;5.974;2024-03-23T13:38:16;9.70;99.90
52107;DHT22;38105;52.968;5.974;2024-03-23T13:40:58;9.60;99.90
52107;DHT22;38105;52.968;5.974;2024-03-23T13:43:24;9.60;99.90
52107;DHT22;38105;52.968;5.974;2024-03-23T13:45:56;9.70;99.90
52107;DHT22;38105;52.968;5.974;2024-03-23T13:48:22;9.70;99.90
52107;DHT22;38105;52.968;5.974;2024-03-23T13:50:56;9.50;99.90
52107;DHT22;38105;52.968;5.974;2024-03-23T13:53:21;9.50;99.90
52107;DHT22;38105;52.968;5.974;2024-03-23T13:55:49;9.50;99.90
52107;DHT22;38105;52.968;5.974;2024-03-23T13:58:15;9.50;99.90
52107;DHT22;38105;52.968;5.974;2024-03-23T14:00:40;9.70;99.90
52107;DHT22;38105;52.968;5.974;2024-03-23T14:03:10;9.70;99.90
52107;DHT22;38105;52.968;5.974;2024-03-23T14:05:36;9.70;99.90
52107;DHT22;38105;52.968;5.974;2024-03-23T14:08:04;9.30;99.90
52107;DHT22;38105;52.968;5.974;2024-03-23T14:10:30;9.20;99.90
52107;DHT22;38105;52.968;5.974;2024-03-23T14:12:55;9.20;99.90
52107;DHT22;38105;52.968;5.974;2024-03-23T14:15:21;9.40;99.90
52107;DHT22;38105;52.968;5.974;2024-03-23T14:17:46;9.60;99.90
52107;DHT22;38105;52.968;5.974;2024-03-23T14:20:12;9.60;99.90
52107;DHT22;38105;52.968;5.974;2024-03-23T14:22:38;9.60;99.90
52107;DHT22;38105;52.968;5.974;2024-03-23T14:25:06;9.60;99.90
52107;DHT22;38105;52.968;5.974;2024-03-23T14:27:32;9.70;99.90
52107;DHT22;38105;52.968;5.974;2024-03-23T14:29:57;9.70;99.90
52107;DHT22;38105;52.968;5.974;2024-03-23T14:32:23;9.70;99.90
52107;DHT22;38105;52.968;5.974;2024-03-23T14:34:49;9.70;99.90
52107;DHT22;38105;52.968;5.974;2024-03-23T14:37:14;9.70;99.90
52107;DHT22;38105;52.968;5.974;2024-03-23T14:39:41;9.70;99.90
52107;DHT22;38105;52.968;5.974;2024-03-23T14:42:07;9.60;99.90
52107;DHT22;38105;52.968;5.974;2024-03-23T14:44:34;9.30;99.90
52107;DHT22;38105;52.968;5.974;2024-03-23T14:46:59;9.30;99.90
52107;DHT22;38105;52.968;5.974;2024-03-23T14:49:25;9.20;99.90
52107;DHT22;38105;52.968;5.974;2024-03-23T14:51:51;9.00;99.90
52107;DHT22;38105;52.968;5.974;2024-03-23T14:54:16;8.50;99.90
52107;DHT22;38105;52.968;5.974;2024-03-23T14:56:42;8.40;99.90
52107;DHT22;38105;52.968;5.974;2024-03-23T14:59:08;8.00;99.90
52107;DHT22;38105;52.968;5.974;2024-03-23T15:01:33;7.80;99.90
52107;DHT22;38105;52.968;5.974;2024-03-23T15:03:59;7.60;99.90
52107;DHT22;38105;52.968;5.974;2024-03-23T15:06:25;7.50;99.90
52107;DHT22;38105;52.968;5.974;2024-03-23T15:08:50;7.80;99.90
52107;DHT22;38105;52.968;5.974;2024-03-23T15:11:16;8.00;99.90
52107;DHT22;38105;52.968;5.974;2024-03-23T15:13:44;8.10;99.90
52107;DHT22;38105;52.968;5.974;2024-03-23T15:16:10;8.30;99.90
52107;DHT22;38105;52.968;5.974;2024-03-23T15:18:35;8.40;99.90
52107;DHT22;38105;52.968;5.974;2024-03-23T15:21:02;8.40;99.90
52107;DHT22;38105;52.968;5.974;2024-03-23T15:23:28;8.50;99.90
52107;DHT22;38105;52.968;5.974;2024-03-23T15:25:54;8.40;99.90
52107;DHT22;38105;52.968;5.974;2024-03-23T15:28:20;8.20;99.90
52107;DHT22;38105;52.968;5.974;2024-03-23T15:30:45;8.20;99.90
52107;DHT22;38105;52.968;5.974;2024-03-23T15:33:11;8.20;99.90
52107;DHT22;38105;52.968;5.974;2024-03-23T15:35:37;8.00;99.90
52107;DHT22;38105;52.968;5.974;2024-03-23T15:38:02;8.00;99.90
52107;DHT22;38105;52.968;5.974;2024-03-23T15:40:29;7.80;99.90
52107;DHT22;38105;52.968;5.974;2024-03-23T15:42:54;7.70;99.90
52107;DHT22;38105;52.968;5.974;2024-03-23T15:45:20;7.80;99.90
52107;DHT22;38105;52.968;5.974;2024-03-23T15:47:45;7.80;99.90
52107;DHT22;38105;52.968;5.974;2024-03-23T15:50:11;7.90;99.90
52107;DHT22;38105;52.968;5.974;2024-03-23T15:52:36;8.00;99.90
52107;DHT22;38105;52.968;5.974;2024-03-23T15:55:03;8.00;99.90
52107;DHT22;38105;52.968;5.974;2024-03-23T15:57:34;8.10;99.90
52107;DHT22;38105;52.968;5.974;2024-03-23T16:00:00;8.00;99.90
52107;DHT22;38105;52.968;5.974;2024-03-23T16:02:26;8.00;99.90
52107;DHT22;38105;52.968;5.974;2024-03-23T16:04:53;8.00;99.90
52107;DHT22;38105;52.968;5.974;2024-03-23T16:07:18;7.80;99.90
52107;DHT22;38105;52.968;5.974;2024-03-23T16:09:44;7.80;99.90
52107;DHT22;38105;52.968;5.974;2024-03-23T16:12:09;7.70;99.90
52107;DHT22;38105;52.968;5.974;2024-03-23T16:14:35;7.60;99.90
52107;DHT22;38105;52.968;5.974;2024-03-23T16:17:00;7.60;99.90
52107;DHT22;38105;52.968;5.974;2024-03-23T16:19:26;7.60;99.90
52107;DHT22;38105;52.968;5.974;2024-03-23T16:21:51;7.60;99.90
52107;DHT22;38105;52.968;5.974;2024-03-23T16:24:17;7.70;99.90
52107;DHT22;38105;52.968;5.974;2024-03-23T16:26:42;7.80;99.90
52107;DHT22;38105;52.968;5.974;2024-03-23T16:29:10;7.80;99.90
52107;DHT22;38105;52.968;5.974;2024-03-23T16:31:36;7.80;99.90
52107;DHT22;38105;52.968;5.974;2024-03-23T16:34:01;7.80;99.90
52107;DHT22;38105;52.968;5.974;2024-03-23T16:36:27;7.70;99.90
52107;DHT22;38105;52.968;5.974;2024-03-23T16:38:52;7.70;99.90
52107;DHT22;38105;52.968;5.974;2024-03-23T16:41:18;7.60;99.90